Time;durP1;ratioP1;P1;durP2;ratioP2;P2;SDS_P1;SDS_P2;PMS_P1;PMS_P2;Temp;Humidity;BMP_temperature;BMP_pressure;BME280_temperature;BME280_humidity;BME280_pressure;Samples;Min_cycle;Max_cycle;Signal;HPM_P1;HPM_P2
2022/06/28 00:00:00;;;;;;;2.85;2.20;;;;;;;-145.69;100.00;71609.34;5076257;28;20203;-79
2022/06/28 00:02:26;;;;;;;4.15;2.42;;;;;;;-145.69;100.00;71599.41;5076138;28;20206;-79
2022/06/28 00:04:54;;;;;;;2.95;2.10;;;;;;;-145.69;100.00;71593.44;5075929;28;20199;-78
2022/06/28 00:07:21;;;;;;;3.22;2.40;;;;;;;-145.69;100.00;71603.38;5076082;28;20233;-78
2022/06/28 00:09:49;;;;;;;4.93;2.30;;;;;;;-145.69;100.00;71597.41;5074954;28;20541;-79
2022/06/28 00:12:17;;;;;;;3.47;2.20;;;;;;;-145.69;100.00;71599.41;5075507;28;20452;-78
2022/06/28 00:17:28;;;;;;;3.35;1.92;;;;;;;-145.69;100.00;71597.41;5075781;28;20225;-78
2022/06/28 00:19:59;;;;;;;3.58;2.30;;;;;;;-145.69;100.00;71589.44;5075901;28;20202;-78
2022/06/28 00:22:32;;;;;;;2.42;2.08;;;;;;;-145.69;100.00;71589.44;5075948;28;20225;-78
2022/06/28 00:25:02;;;;;;;4.90;2.15;;;;;;;-145.69;100.00;71589.44;5075752;28;20290;-78
2022/06/28 00:27:33;;;;;;;4.07;2.15;;;;;;;-145.69;100.00;71585.47;5075669;28;20222;-79
2022/06/28 00:29:59;;;;;;;3.75;1.92;;;;;;;-145.69;100.00;71585.47;5075568;28;20217;-78
2022/06/28 00:32:26;;;;;;;2.03;1.80;;;;;;;-145.69;100.00;71579.50;5075522;28;20202;-78
2022/06/28 00:34:55;;;;;;;2.67;1.77;;;;;;;-145.69;100.00;71585.47;5075618;28;20218;-78
2022/06/28 00:37:24;;;;;;;2.80;2.00;;;;;;;-145.69;100.00;71599.41;5075647;28;20203;-78
2022/06/28 00:39:51;;;;;;;3.80;2.10;;;;;;;-145.69;100.00;71593.44;5075469;28;20199;-78
2022/06/28 00:42:18;;;;;;;5.28;2.20;;;;;;;-145.69;100.00;71597.41;5074890;28;20558;-78
2022/06/28 00:44:46;;;;;;;2.83;2.08;;;;;;;-145.69;100.00;71593.44;5074244;28;20433;-78
2022/06/28 00:47:13;;;;;;;5.32;2.20;;;;;;;-145.69;100.00;71593.44;5075032;28;20630;-78
2022/06/28 00:49:44;;;;;;;4.05;2.55;;;;;;;-145.69;100.00;71593.44;5074307;28;20206;-78
2022/06/28 00:52:13;;;;;;;5.45;2.05;;;;;;;-145.69;100.00;71589.44;5075284;28;20205;-78
2022/06/28 00:54:39;;;;;;;3.83;1.75;;;;;;;-145.69;100.00;71593.44;5075073;28;20558;-79
2022/06/28 00:57:07;;;;;;;5.60;2.03;;;;;;;-145.69;100.00;71593.44;5075007;28;20613;-79
2022/06/28 00:59:35;;;;;;;5.93;1.90;;;;;;;-145.69;100.00;71597.41;5074795;28;20194;-78
2022/06/28 01:02:03;;;;;;;5.57;1.83;;;;;;;-145.69;100.00;71607.34;5075173;28;20242;-78
2022/06/28 01:04:30;;;;;;;2.17;1.98;;;;;;;-145.69;100.00;71601.38;5065126;28;20203;-78
2022/06/28 01:07:01;;;;;;;2.55;1.92;;;;;;;-145.69;100.00;71597.41;5054819;28;20231;-78
2022/06/28 01:09:29;;;;;;;1.88;1.77;;;;;;;-145.69;100.00;71601.38;5054734;28;20229;-77
2022/06/28 01:11:55;;;;;;;2.80;2.35;;;;;;;-145.69;100.00;71597.41;5054981;28;20199;-78
2022/06/28 01:14:25;;;;;;;2.53;1.73;;;;;;;-145.69;100.00;71589.44;5054976;28;20229;-78
2022/06/28 01:16:52;;;;;;;4.50;1.83;;;;;;;-145.69;100.00;71597.41;5054864;28;20586;-78
2022/06/28 01:19:20;;;;;;;10.40;2.30;;;;;;;-145.69;100.00;71587.47;5054676;28;20211;-78
2022/06/28 01:21:49;;;;;;;2.92;1.85;;;;;;;-145.69;100.00;71597.41;5054584;28;20219;-78
2022/06/28 01:24:16;;;;;;;3.15;1.88;;;;;;;-145.69;100.00;71601.38;5054444;28;20254;-78
2022/06/28 01:26:45;;;;;;;2.60;2.10;;;;;;;-145.69;100.00;71601.38;5054456;28;20238;-78
2022/06/28 01:29:12;;;;;;;8.05;1.90;;;;;;;-145.69;100.00;71609.34;5067875;28;20229;-78
2022/06/28 01:31:39;;;;;;;3.13;1.90;;;;;;;-145.69;100.00;71609.34;5074552;28;20297;-77
2022/06/28 01:34:06;;;;;;;3.45;1.40;;;;;;;-145.69;100.00;71609.34;5074484;28;20566;-78
2022/06/28 01:36:32;;;;;;;2.45;1.73;;;;;;;-145.69;100.00;71607.34;5073392;28;20206;-78
2022/06/28 01:38:59;;;;;;;4.25;1.60;;;;;;;-145.69;100.00;71611.34;5074198;28;20199;-77
2022/06/28 01:41:33;;;;;;;1.95;1.58;;;;;;;-145.69;100.00;71609.34;5074257;28;20294;-78
2022/06/28 01:44:00;;;;;;;2.22;1.88;;;;;;;-145.69;100.00;71609.34;5074182;28;20685;-77
2022/06/28 01:47:06;;;;;;;3.58;2.10;;;;;;;-145.69;100.00;71617.31;4915220;28;20566;-75
2022/06/28 01:49:33;;;;;;;3.35;1.70;;;;;;;-145.69;100.00;71629.25;5070797;28;20202;-78
2022/06/28 01:52:00;;;;;;;3.20;1.70;;;;;;;-145.69;100.00;71637.19;5073843;28;20205;-78
2022/06/28 01:54:26;;;;;;;2.58;1.40;;;;;;;-145.69;100.00;71643.19;5072946;28;20657;-78
2022/06/28 01:56:58;;;;;;;2.88;1.98;;;;;;;-145.69;100.00;71641.19;5073864;28;20203;-79
2022/06/28 01:59:25;;;;;;;2.30;1.95;;;;;;;-145.69;100.00;71635.22;5073239;28;20263;-79
2022/06/28 02:01:55;;;;;;;2.20;1.73;;;;;;;-145.69;100.00;71637.19;5073081;28;20268;-79
2022/06/28 02:04:23;;;;;;;2.25;1.88;;;;;;;-145.69;100.00;71641.19;5074060;28;20209;-79
2022/06/28 02:06:49;;;;;;;7.32;1.98;;;;;;;-145.69;100.00;71647.16;5073753;28;20235;-78
2022/06/28 02:09:16;;;;;;;2.53;2.13;;;;;;;-145.69;100.00;71645.16;5073746;28;20198;-78
2022/06/28 02:11:43;;;;;;;4.75;2.10;;;;;;;-145.69;100.00;71655.13;5073781;28;20576;-79
2022/06/28 02:14:11;;;;;;;5.50;2.20;;;;;;;-145.69;100.00;71663.06;5073541;28;20202;-79
2022/06/28 02:16:38;;;;;;;3.60;1.92;;;;;;;-145.69;100.00;71661.09;5073810;28;20211;-79
2022/06/28 02:19:05;;;;;;;6.18;2.38;;;;;;;-145.69;100.00;71661.09;5073348;28;20210;-78
2022/06/28 02:21:35;;;;;;;6.38;2.60;;;;;;;-145.69;100.00;71669.03;5073085;28;20935;-79
2022/06/28 02:24:05;;;;;;;6.20;2.30;;;;;;;-145.69;100.00;71677.00;5073520;28;20202;-79
2022/06/28 02:26:32;;;;;;;3.22;2.45;;;;;;;-145.69;100.00;71655.13;5073333;28;20301;-79
2022/06/28 02:29:01;;;;;;;3.92;2.45;;;;;;;-145.69;100.00;71645.16;5073010;28;20191;-79
2022/06/28 02:31:29;;;;;;;2.50;2.08;;;;;;;-145.69;100.00;71649.16;5073273;28;20650;-78
2022/06/28 02:33:56;;;;;;;8.00;2.13;;;;;;;-145.69;100.00;71657.09;5073315;28;20214;-78
2022/06/28 02:41:51;;;;;;;2.83;2.25;;;;;;;-145.69;100.00;71651.13;5073345;28;20198;-78
2022/06/28 02:44:17;;;;;;;3.88;2.47;;;;;;;-145.69;100.00;71653.13;5073258;28;20343;-78
2022/06/28 02:46:46;;;;;;;3.97;2.40;;;;;;;-145.69;100.00;71649.16;5073067;28;20577;-78
2022/06/28 02:49:13;;;;;;;2.65;2.10;;;;;;;-145.69;100.00;71655.13;5072946;28;20231;-78
2022/06/28 02:51:39;;;;;;;8.13;2.60;;;;;;;-145.69;100.00;71669.03;5073088;28;20661;-78
2022/06/28 02:54:06;;;;;;;6.93;2.00;;;;;;;-145.69;100.00;71671.03;5072999;28;20289;-79
2022/06/28 02:56:33;;;;;;;3.53;2.22;;;;;;;-145.69;100.00;71673.03;5072998;28;20245;-78
2022/06/28 02:59:00;;;;;;;2.80;2.00;;;;;;;-145.69;100.00;71684.97;5072774;28;20549;-79
2022/06/28 03:01:26;;;;;;;2.40;1.90;;;;;;;-145.69;100.00;71696.91;5071104;28;20565;-78
2022/06/28 03:03:54;;;;;;;3.20;2.17;;;;;;;-145.69;100.00;71704.88;5053312;28;20203;-78
2022/06/28 03:06:21;;;;;;;4.40;2.72;;;;;;;-145.69;100.00;71700.88;5052883;28;20199;-78
2022/06/28 03:08:47;;;;;;;4.50;2.83;;;;;;;-145.69;100.00;71692.94;5053100;28;20282;-78
2022/06/28 03:11:14;;;;;;;3.55;2.50;;;;;;;-145.69;100.00;71692.94;5053017;28;20199;-79
2022/06/28 03:13:41;;;;;;;9.35;2.00;;;;;;;-145.69;100.00;71692.94;5052493;28;20284;-78
2022/06/28 03:16:07;;;;;;;5.30;2.78;;;;;;;-145.69;100.00;71704.88;5052724;28;20206;-78
2022/06/28 03:18:34;;;;;;;5.97;2.50;;;;;;;-145.69;100.00;71706.84;5052747;28;20215;-78
2022/06/28 03:21:03;;;;;;;6.40;2.70;;;;;;;-145.69;100.00;71704.88;5052711;28;20576;-78
2022/06/28 03:23:30;;;;;;;3.75;2.60;;;;;;;-145.69;100.00;71702.88;5050742;28;20207;-78
2022/06/28 03:25:56;;;;;;;4.20;2.78;;;;;;;-145.69;100.00;71700.88;5052757;28;20299;-78
2022/06/28 03:28:22;;;;;;;3.15;2.40;;;;;;;-145.69;100.00;71700.88;5063702;28;20222;-79
2022/06/28 03:30:49;;;;;;;4.80;2.90;;;;;;;-145.69;100.00;71696.91;5072768;28;20298;-79
2022/06/28 03:33:19;;;;;;;4.18;2.47;;;;;;;-145.69;100.00;71696.91;5072659;28;20199;-79
2022/06/28 03:35:45;;;;;;;3.28;2.65;;;;;;;-145.69;100.00;71694.91;5072204;28;20194;-79
2022/06/28 03:38:14;;;;;;;3.85;2.70;;;;;;;-145.69;100.00;71698.91;5072764;28;20195;-78
2022/06/28 03:40:41;;;;;;;5.72;3.28;;;;;;;-145.69;100.00;71688.94;5070001;28;20676;-79
2022/06/28 03:43:07;;;;;;;6.50;3.80;;;;;;;-145.69;100.00;71688.94;5068235;28;20909;-79
2022/06/28 03:45:37;;;;;;;4.88;2.95;;;;;;;-145.69;100.00;71690.94;5072347;28;20199;-79
2022/06/28 03:48:04;;;;;;;4.22;2.47;;;;;;;-145.69;100.00;71692.94;5072358;28;20238;-79
2022/06/28 03:50:30;;;;;;;4.18;3.25;;;;;;;-145.69;100.00;71694.91;5072668;28;20206;-79
2022/06/28 03:52:57;;;;;;;3.25;2.58;;;;;;;-145.69;100.00;71698.91;5072307;28;20198;-79
2022/06/28 03:55:25;;;;;;;4.47;2.92;;;;;;;-145.69;100.00;71696.91;5072524;28;20199;-80
2022/06/28 03:57:52;;;;;;;3.53;2.63;;;;;;;-145.69;100.00;71694.91;5072480;28;20199;-80
2022/06/28 04:00:18;;;;;;;3.00;2.50;;;;;;;-145.69;100.00;71680.97;5072219;28;20201;-79
2022/06/28 04:02:45;;;;;;;5.43;2.55;;;;;;;-145.69;100.00;71680.97;5072164;28;20685;-80
2022/06/28 04:05:11;;;;;;;4.72;2.88;;;;;;;-145.69;100.00;71677.00;5072035;28;20195;-79
2022/06/28 04:07:38;;;;;;;7.30;3.22;;;;;;;-145.69;100.00;71677.00;5072426;28;20269;-79
2022/06/28 04:10:05;;;;;;;2.83;2.40;;;;;;;-145.69;100.00;71673.03;5072324;28;20199;-79
2022/06/28 04:12:33;;;;;;;5.32;2.72;;;;;;;-145.69;100.00;71667.06;5072323;28;20210;-79
2022/06/28 04:15:00;;;;;;;4.90;2.42;;;;;;;-145.69;100.00;71657.09;5072227;28;20234;-79
2022/06/28 04:17:26;;;;;;;3.13;2.50;;;;;;;-145.69;100.00;71661.09;5072145;28;20201;-79
2022/06/28 04:19:53;;;;;;;5.25;2.83;;;;;;;-145.69;100.00;71661.09;5072043;28;20199;-79
2022/06/28 04:22:19;;;;;;;4.78;2.97;;;;;;;-145.69;100.00;71669.03;5072356;28;20209;-79
2022/06/28 04:24:46;;;;;;;12.65;3.22;;;;;;;-145.69;100.00;71655.13;5073683;28;20282;-80
2022/06/28 04:27:12;;;;;;;5.75;2.92;;;;;;;-145.69;100.00;71645.16;5075473;28;20230;-78
2022/06/28 04:29:41;;;;;;;7.28;2.90;;;;;;;-145.69;100.00;71633.22;5075621;28;20225;-79
2022/06/28 04:32:08;;;;;;;3.08;2.78;;;;;;;-145.69;100.00;71619.28;5075665;28;20756;-79
2022/06/28 04:34:35;;;;;;;4.97;2.70;;;;;;;-145.69;100.00;71629.25;5075347;28;20198;-79
2022/06/28 04:37:01;;;;;;;3.67;2.85;;;;;;;-145.69;100.00;71609.34;5075163;28;20206;-79
2022/06/28 04:39:28;;;;;;;5.93;2.80;;;;;;;-145.69;100.00;71585.47;5075308;28;20667;-79
2022/06/28 04:41:54;;;;;;;8.38;2.63;;;;;;;-145.69;100.00;71589.44;5075424;28;20198;-78
2022/06/28 04:44:21;;;;;;;3.45;2.35;;;;;;;-145.69;100.00;71567.56;5072932;28;20680;-77
2022/06/28 04:46:49;;;;;;;6.70;2.35;;;;;;;-145.69;100.00;71535.72;5074796;28;20666;-77
2022/06/28 04:49:20;;;;;;;4.05;2.13;;;;;;;-145.69;100.00;71523.78;5074688;28;20233;-77
2022/06/28 04:51:47;;;;;;;4.07;1.65;;;;;;;-145.69;100.00;71497.91;5075155;28;20244;-77
2022/06/28 04:54:15;;;;;;;3.80;1.85;;;;;;;-145.69;100.00;71489.94;5070481;28;20203;-78
2022/06/28 04:56:42;;;;;;;4.75;1.80;;;;;;;-145.69;100.00;71482.00;5054983;28;20666;-78
2022/06/28 04:59:08;;;;;;;4.13;1.55;;;;;;;-145.69;100.00;71478.00;5054901;28;20601;-77
2022/06/28 05:01:35;;;;;;;4.47;1.80;;;;;;;-145.69;100.00;71478.00;5054662;28;20206;-78
2022/06/28 05:04:02;;;;;;;4.15;1.60;;;;;;;-145.69;100.00;71472.03;5055175;28;20207;-78
2022/06/28 05:06:29;;;;;;;1.45;1.33;;;;;;;-145.69;100.00;71448.16;5054795;28;20202;-78
2022/06/28 05:08:56;;;;;;;2.33;1.55;;;;;;;-145.69;100.00;71454.13;5054820;28;20258;-78
2022/06/28 05:11:24;;;;;;;8.68;1.65;;;;;;;-145.69;100.00;71466.06;5054880;28;20203;-78
2022/06/28 05:13:50;;;;;;;2.95;1.50;;;;;;;-145.69;100.00;71505.88;5054729;28;20199;-79
2022/06/28 05:16:20;;;;;;;5.80;1.70;;;;;;;-145.69;100.00;71505.88;5065811;28;20198;-78
2022/06/28 05:18:47;;;;;;;5.40;1.80;;;;;;;-145.69;100.00;71491.94;5074884;28;20335;-78
2022/06/28 05:21:15;;;;;;;6.00;1.75;;;;;;;-145.69;100.00;71476.03;5074834;28;20205;-79
2022/06/28 05:23:42;;;;;;;2.33;1.60;;;;;;;-145.69;100.00;71426.28;5074074;28;20646;-79
2022/06/28 05:26:09;;;;;;;3.38;1.30;;;;;;;-145.69;100.00;71386.47;5074528;28;20238;-78
2022/06/28 05:28:35;;;;;;;1.50;1.20;;;;;;;-145.69;100.00;71382.50;5074296;28;20466;-78
2022/06/28 05:31:02;;;;;;;2.72;1.20;;;;;;;-145.69;100.00;71370.56;5074669;28;20610;-78
2022/06/28 05:33:29;;;;;;;1.20;1.10;;;;;;;-145.69;100.00;71354.63;5074657;28;20565;-79
2022/06/28 05:35:55;;;;;;;3.47;1.55;;;;;;;-145.69;100.00;71378.50;5073906;28;20756;-79
2022/06/28 05:38:23;;;;;;;1.52;1.40;;;;;;;-145.69;100.00;71388.47;5074492;28;20203;-79
2022/06/28 05:40:50;;;;;;;4.43;1.60;;;;;;;-145.69;100.00;71398.41;5074329;28;20199;-79
2022/06/28 05:43:16;;;;;;;1.63;1.23;;;;;;;-145.69;100.00;71410.34;5074514;28;20205;-79
2022/06/28 05:45:43;;;;;;;2.75;1.73;;;;;;;-145.69;100.00;71400.41;5072901;28;20201;-78
2022/06/28 05:48:09;;;;;;;2.55;1.58;;;;;;;-145.69;100.00;71422.28;5073360;28;20249;-80
2022/06/28 05:50:36;;;;;;;6.55;1.60;;;;;;;-145.69;100.00;71416.31;5073855;28;20544;-80
2022/06/28 05:53:02;;;;;;;3.45;1.70;;;;;;;-145.69;100.00;71408.38;5073946;28;20290;-79
2022/06/28 05:55:31;;;;;;;4.53;1.67;;;;;;;-145.69;100.00;71398.41;5073959;28;20233;-79
2022/06/28 05:57:57;;;;;;;3.95;1.92;;;;;;;-145.69;100.00;71398.41;5073888;28;20226;-79
2022/06/28 06:00:24;;;;;;;2.70;1.80;;;;;;;-145.69;100.00;71414.34;5074054;28;20206;-79
2022/06/28 06:02:50;;;;;;;4.22;1.80;;;;;;;-145.69;100.00;71402.41;5074082;28;20210;-79
2022/06/28 06:05:17;;;;;;;2.63;1.80;;;;;;;-145.69;100.00;71400.41;5074036;28;20202;-80
2022/06/28 06:07:43;;;;;;;6.22;1.88;;;;;;;-145.69;100.00;71448.16;5073717;28;20584;-80
2022/06/28 06:10:10;;;;;;;2.17;1.80;;;;;;;-145.69;100.00;71438.22;5072823;28;20194;-79
2022/06/28 06:12:38;;;;;;;2.25;1.80;;;;;;;-145.69;100.00;71438.22;5071924;28;20205;-80
2022/06/28 06:15:05;;;;;;;2.72;1.73;;;;;;;-145.69;100.00;71450.16;5071716;28;20596;-79
2022/06/28 06:17:32;;;;;;;2.45;2.05;;;;;;;-145.69;100.00;71432.25;5071705;28;20218;-79
2022/06/28 06:19:58;;;;;;;3.03;2.30;;;;;;;-145.69;100.00;71402.41;5071746;28;20198;-79
2022/06/28 06:22:25;;;;;;;6.63;2.50;;;;;;;-145.69;100.00;71370.56;5072160;28;20198;-81
2022/06/28 06:24:51;;;;;;;8.00;2.53;;;;;;;-145.69;100.00;71364.59;5073712;28;20616;-82
2022/06/28 06:27:18;;;;;;;3.28;2.20;;;;;;;-145.69;100.00;71362.59;5073546;28;20203;-80
2022/06/28 06:29:46;;;;;;;4.32;2.33;;;;;;;-145.69;100.00;71362.59;5073777;28;20203;-80
2022/06/28 06:32:15;;;;;;;3.65;2.53;;;;;;;-145.69;100.00;71362.59;5073507;28;20226;-79
2022/06/28 06:34:41;;;;;;;3.83;2.50;;;;;;;-145.69;100.00;71358.63;5073273;28;20217;-82
2022/06/28 06:37:08;;;;;;;2.10;1.83;;;;;;;-145.69;100.00;71362.59;5073248;28;20662;-79
2022/06/28 06:39:34;;;;;;;5.78;1.80;;;;;;;-145.69;100.00;71400.41;5073494;28;20215;-80
2022/06/28 06:42:01;;;;;;;3.27;1.83;;;;;;;-145.69;100.00;71432.25;5072108;28;20905;-79
2022/06/28 06:44:27;;;;;;;2.15;1.80;;;;;;;-145.69;100.00;71458.09;5073180;28;20452;-79
2022/06/28 06:46:56;;;;;;;5.65;1.98;;;;;;;-145.69;100.00;71448.16;5072653;28;20199;-79
2022/06/28 06:49:22;;;;;;;2.00;1.80;;;;;;;-145.69;100.00;71394.44;5072797;28;20234;-80
2022/06/28 06:51:49;;;;;;;2.40;1.55;;;;;;;-145.69;100.00;71362.59;5073422;28;20543;-80
2022/06/28 06:54:16;;;;;;;3.90;1.70;;;;;;;-145.69;100.00;71324.78;5073233;28;20206;-79
2022/06/28 06:56:43;;;;;;;2.58;1.88;;;;;;;-145.69;100.00;71255.16;5073116;28;20206;-80
2022/06/28 06:59:11;;;;;;;1.88;1.42;;;;;;;-145.69;100.00;71167.59;5073131;28;20570;-80
2022/06/28 07:01:41;;;;;;;3.13;1.50;;;;;;;-145.69;100.00;71127.81;5072950;28;20205;-80
2022/06/28 07:04:09;;;;;;;3.72;1.60;;;;;;;-145.69;100.00;71129.78;5069319;28;20203;-80
2022/06/28 07:06:37;;;;;;;1.98;1.45;;;;;;;-145.69;100.00;71171.56;5053156;28;20199;-80
2022/06/28 07:09:03;;;;;;;3.47;1.85;;;;;;;-145.69;100.00;71223.31;5053030;28;20227;-80
2022/06/28 07:11:30;;;;;;;2.28;1.70;;;;;;;-145.69;100.00;71227.28;5053046;28;20203;-81
2022/06/28 07:13:56;;;;;;;1.63;1.30;;;;;;;-145.69;100.00;71211.38;5052866;28;20211;-80
2022/06/28 07:16:23;;;;;;;4.47;1.75;;;;;;;-145.69;100.00;71151.69;5051577;28;20431;-79
2022/06/28 07:18:50;;;;;;;3.97;2.00;;;;;;;-145.69;100.00;71229.28;5053049;28;20214;-79
2022/06/28 07:21:18;;;;;;;2.95;1.83;;;;;;;-145.69;100.00;71179.53;5053005;28;20200;-80
2022/06/28 07:23:44;;;;;;;2.28;1.85;;;;;;;-145.69;100.00;71201.41;5052933;28;20195;-80
2022/06/28 07:26:11;;;;;;;1.70;1.48;;;;;;;-145.69;100.00;71189.47;5053147;28;20701;-80
2022/06/28 07:28:38;;;;;;;2.05;1.50;;;;;;;-145.69;100.00;71185.50;5052591;28;20231;-79
2022/06/28 07:31:05;;;;;;;4.57;1.75;;;;;;;-145.69;100.00;71131.78;5052596;28;20676;-80
2022/06/28 07:33:31;;;;;;;2.25;1.63;;;;;;;-145.69;100.00;71115.88;5054209;28;20302;-83
2022/06/28 07:35:59;;;;;;;3.35;1.88;;;;;;;-145.69;100.00;71103.94;5053940;28;20206;-81
2022/06/28 07:38:29;;;;;;;4.97;1.60;;;;;;;-145.69;100.00;71076.06;5052734;28;20203;-81
2022/06/28 07:40:56;;;;;;;5.22;1.90;;;;;;;-145.69;100.00;71092.00;5052870;28;20199;-82
2022/06/28 07:43:23;;;;;;;2.45;1.40;;;;;;;-145.69;100.00;71092.00;5052698;28;20544;-80
2022/06/28 07:45:49;;;;;;;2.55;1.52;;;;;;;-145.69;100.00;71107.91;5052705;28;20195;-80
2022/06/28 07:48:18;;;;;;;3.67;1.58;;;;;;;-145.69;100.00;71111.88;5052409;28;20238;-79
2022/06/28 07:53:30;;;;;;;1.98;1.40;;;;;;;-145.69;100.00;71080.06;5051532;28;20917;-81
2022/06/28 07:56:00;;;;;;;3.15;1.50;;;;;;;-145.69;100.00;71092.00;5052598;28;20295;-80
2022/06/28 07:58:26;;;;;;;4.45;1.40;;;;;;;-145.69;100.00;71131.78;5053760;28;20213;-79
2022/06/28 08:00:53;;;;;;;3.08;1.50;;;;;;;-145.69;100.00;71157.66;5056404;28;20199;-80
2022/06/28 08:03:19;;;;;;;4.05;1.52;;;;;;;-145.69;100.00;71141.72;5056167;28;20674;-80
2022/06/28 08:05:46;;;;;;;2.90;1.67;;;;;;;-145.69;100.00;71131.78;5056222;28;20296;-78
2022/06/28 08:08:12;;;;;;;2.25;1.73;;;;;;;-145.69;100.00;71090.00;5056196;28;20261;-81
2022/06/28 08:10:40;;;;;;;2.35;1.73;;;;;;;-145.69;100.00;71127.81;5056081;28;20211;-79
2022/06/28 08:13:07;;;;;;;3.08;1.98;;;;;;;-145.69;100.00;71145.72;5056039;28;20199;-79
2022/06/28 08:15:33;;;;;;;2.85;1.80;;;;;;;-145.69;100.00;71127.81;5056241;28;20290;-80
2022/06/28 08:18:00;;;;;;;3.78;1.55;;;;;;;-145.69;100.00;71129.78;5056035;28;20195;-83
2022/06/28 08:20:31;;;;;;;3.05;2.15;;;;;;;-145.69;100.00;71151.69;5054914;28;20930;-80
2022/06/28 08:22:58;;;;;;;6.75;1.90;;;;;;;-145.69;100.00;71133.78;5056262;28;20225;-80
2022/06/28 08:25:25;;;;;;;2.53;1.83;;;;;;;-145.69;100.00;71135.75;5056254;28;20222;-80
2022/06/28 08:27:53;;;;;;;2.13;1.50;;;;;;;-145.69;100.00;71115.88;5056100;28;20208;-81
2022/06/28 08:30:20;;;;;;;4.15;1.83;;;;;;;-145.69;100.00;71099.94;5056010;28;20210;-82
2022/06/28 08:32:46;;;;;;;1.90;1.60;;;;;;;-145.69;99.28;71068.13;5055973;28;20685;-79
2022/06/28 08:35:13;;;;;;;4.80;1.48;;;;;;;-145.69;100.00;71038.25;5055686;28;20199;-80
2022/06/28 08:37:40;;;;;;;3.85;1.40;;;;;;;-145.69;94.70;71008.41;5055782;28;20202;-82
2022/06/28 08:40:08;;;;;;;2.50;1.20;;;;;;;-145.69;94.01;70970.63;5055994;28;20211;-80
2022/06/28 08:42:38;;;;;;;1.77;1.30;;;;;;;-145.69;89.48;70908.94;5056530;28;20199;-81
2022/06/28 08:45:08;;;;;;;1.45;1.17;;;;;;;-145.69;91.25;70908.94;5055587;28;20573;-80
2022/06/28 08:47:36;;;;;;;1.67;1.50;;;;;;;-145.69;97.93;70938.78;5055709;28;20585;-80
2022/06/28 08:50:06;;;;;;;2.92;1.65;;;;;;;-145.69;98.54;70968.63;5055759;28;20710;-79
2022/06/28 08:52:35;;;;;;;5.82;2.03;;;;;;;-145.69;99.32;71002.44;5056326;28;20220;-82
2022/06/28 08:55:03;;;;;;;2.10;1.50;;;;;;;-145.69;98.46;71004.44;5056337;28;20199;-81
2022/06/28 08:57:32;;;;;;;2.67;1.67;;;;;;;-145.69;99.16;71026.31;5055862;28;20196;-82
2022/06/28 08:59:59;;;;;;;2.58;1.52;;;;;;;-145.69;100.00;71024.34;5055486;28;20658;-80
2022/06/28 09:02:27;;;;;;;5.10;1.83;;;;;;;-145.69;100.00;71010.41;5055421;28;20210;-79
2022/06/28 09:04:54;;;;;;;3.30;1.67;;;;;;;-145.69;100.00;71060.16;5055468;28;20674;-80
2022/06/28 09:07:21;;;;;;;1.75;1.38;;;;;;;-145.69;100.00;71046.22;5055765;28;20670;-82
2022/06/28 09:09:48;;;;;;;2.50;1.50;;;;;;;-145.69;99.58;71008.41;5065585;28;20234;-84
2022/06/28 09:12:14;;;;;;;3.30;1.50;;;;;;;-145.69;96.57;70996.47;5075449;28;20657;-79
2022/06/28 09:14:41;;;;;;;3.33;1.42;;;;;;;-145.69;96.91;70978.56;5075633;28;20676;-82
2022/06/28 09:17:19;;;;;;;2.67;1.40;;;;;;;-145.69;96.09;70968.63;5075937;28;20205;-81
2022/06/28 09:19:48;;;;;;;6.10;1.70;;;;;;;-145.69;99.29;70982.56;5075999;28;20199;-81
2022/06/28 09:22:29;;;;;;;1.90;1.70;;;;;;;-145.69;99.58;70974.59;5076158;28;20289;-81
2022/06/28 09:24:56;;;;;;;2.38;1.77;;;;;;;-145.69;97.71;70970.63;5076433;28;20657;-80
2022/06/28 09:27:29;;;;;;;4.47;1.90;;;;;;;-145.69;98.74;70976.59;5076550;28;20254;-82
2022/06/28 09:29:56;;;;;;;2.95;1.95;;;;;;;-145.69;99.90;71000.47;5077002;28;20230;-81
2022/06/28 09:32:27;;;;;;;3.17;1.88;;;;;;;-145.69;100.00;70976.59;5078004;28;20203;-79
2022/06/28 09:34:57;;;;;;;3.55;2.10;;;;;;;-145.69;96.26;70996.47;5076885;28;20595;-82
2022/06/28 09:37:33;;;;;;;3.38;2.05;;;;;;;-145.69;100.00;71020.34;5076019;28;20241;-81
2022/06/28 09:40:10;;;;;;;4.57;2.92;;;;;;;-145.69;100.00;71044.22;5075318;28;20661;-83
2022/06/28 09:42:36;;;;;;;3.10;2.80;;;;;;;-145.69;100.00;71060.16;5075289;28;20285;-81
2022/06/28 09:45:03;;;;;;;4.07;3.20;;;;;;;-145.69;100.00;71040.25;5076736;28;20207;-82
2022/06/28 09:47:30;;;;;;;4.82;2.90;;;;;;;-145.69;100.00;71038.25;5075850;28;20258;-80
2022/06/28 09:49:59;;;;;;;3.20;2.60;;;;;;;-145.69;100.00;70996.47;5075261;28;20227;-81
2022/06/28 09:52:29;;;;;;;5.38;2.90;;;;;;;-145.69;100.00;70984.53;5074774;28;20546;-83
2022/06/28 09:54:57;;;;;;;6.78;2.80;;;;;;;-145.69;100.00;70970.63;5075226;28;20666;-81
2022/06/28 09:57:24;;;;;;;4.03;2.42;;;;;;;-145.69;95.13;70918.88;5075564;28;20238;-80
2022/06/28 09:59:52;;;;;;;4.72;2.72;;;;;;;-145.69;95.45;70877.09;5075223;28;20210;-79
2022/06/28 10:02:19;;;;;;;4.80;2.88;;;;;;;-145.69;92.80;70867.16;5074907;28;20210;-81
2022/06/28 10:04:46;;;;;;;3.40;2.70;;;;;;;-145.69;92.51;70879.09;5074703;28;20240;-81
2022/06/28 10:07:15;;;;;;;6.63;3.08;;;;;;;-145.69;94.76;70891.03;5075045;28;20201;-81
2022/06/28 10:09:42;;;;;;;3.75;2.80;;;;;;;-145.69;92.20;70867.16;5074875;28;20380;-80
2022/06/28 10:15:04;;;;;;;5.40;2.22;;;;;;;-145.69;91.88;70833.34;5075172;28;20197;-82
2022/06/28 10:17:52;;;;;;;2.95;2.65;;;;;;;-145.69;91.03;70841.28;5074155;28;20209;-81
2022/06/28 10:20:21;;;;;;;3.95;2.25;;;;;;;-145.69;89.64;70797.53;5070581;28;20225;-81
2022/06/28 10:22:50;;;;;;;5.05;2.40;;;;;;;-145.69;91.30;70765.69;5065048;28;20293;-80
2022/06/28 10:25:18;;;;;;;4.65;2.70;;;;;;;-145.69;90.16;70783.59;5074709;28;20286;-84
2022/06/28 10:27:47;;;;;;;2.85;2.50;;;;;;;-145.69;91.45;70741.81;5063743;28;20202;-81
2022/06/28 10:30:23;;;;;;;3.00;2.53;;;;;;;-145.69;84.73;70704.00;5054176;28;20227;-82
2022/06/28 10:32:51;;;;;;;4.82;2.33;;;;;;;-145.69;83.21;70698.03;5054188;28;20658;-83
2022/06/28 10:35:53;;;;;;;2.67;2.20;;;;;;;-145.69;85.46;70708.00;5054581;28;20203;-80
2022/06/28 10:38:21;;;;;;;7.53;2.08;;;;;;;-145.69;84.66;70652.28;5053732;28;20227;-80
2022/06/28 10:40:49;;;;;;;3.25;2.20;;;;;;;-145.69;87.33;70658.25;5053766;28;20570;-81
2022/06/28 10:43:16;;;;;;;4.88;2.35;;;;;;;-145.69;83.16;70664.22;5054486;28;20226;-83
2022/06/28 10:46:06;;;;;;;3.17;2.42;;;;;;;-145.69;82.93;70690.09;5053918;28;20211;-84
2022/06/28 10:49:02;;;;;;;3.50;2.58;;;;;;;-145.69;86.26;70729.88;5054219;28;20258;-79
2022/06/28 10:51:28;;;;;;;2.97;2.35;;;;;;;-145.69;89.50;70773.66;5036148;28;20471;-81
2022/06/28 10:54:04;;;;;;;5.95;3.20;;;;;;;-145.69;90.67;70799.50;5054194;28;20210;-81
2022/06/28 10:56:31;;;;;;;3.28;2.50;;;;;;;-145.69;88.58;70789.56;5053895;28;20209;-83
2022/06/28 10:58:59;;;;;;;5.03;3.00;;;;;;;-145.69;89.50;70825.38;5053633;28;20203;-80
2022/06/28 11:01:54;;;;;;;4.43;2.75;;;;;;;-145.69;89.58;70763.69;5053369;28;20557;-81
2022/06/28 11:04:26;;;;;;;4.43;2.53;;;;;;;-145.69;88.58;70759.72;5054451;28;20253;-81
2022/06/28 11:06:58;;;;;;;3.00;2.55;;;;;;;-145.69;89.31;70783.59;5053408;28;20206;-81
2022/06/28 11:09:53;;;;;;;3.13;2.42;;;;;;;-145.69;90.18;70795.53;5053532;28;20237;-79
2022/06/28 11:12:21;;;;;;;8.88;2.60;;;;;;;-145.69;89.93;70819.41;5053556;28;20203;-78
2022/06/28 11:14:51;;;;;;;2.72;2.30;;;;;;;-145.69;90.60;70779.63;5053360;28;20531;-79
2022/06/28 11:17:20;;;;;;;2.63;2.10;;;;;;;-145.69;94.22;70807.47;5053142;28;20203;-79
2022/06/28 11:19:54;;;;;;;3.55;2.70;;;;;;;-145.69;91.26;70829.34;5053002;28;20204;-80
2022/06/28 11:22:26;;;;;;;4.20;2.22;;;;;;;-145.69;94.10;70841.28;5053250;28;20195;-79
2022/06/28 11:24:54;;;;;;;2.90;2.42;;;;;;;-145.69;92.36;70815.44;5053524;28;20218;-81
2022/06/28 11:27:21;;;;;;;4.97;2.50;;;;;;;-145.69;88.97;70797.53;5052606;28;20767;-83
2022/06/28 11:29:54;;;;;;;4.05;2.78;;;;;;;-145.69;88.62;70801.50;5053295;28;20313;-82